createdAt,value
2023-03-07T00:01:22.397Z,27.98
2023-03-07T00:08:42.750Z,51.37
2023-03-07T00:12:24.655Z,33.63
2023-03-07T00:32:07.205Z,41.73
2023-03-07T00:35:24.212Z,53.68
2023-03-07T00:42:22.413Z,47.60
2023-03-07T00:45:45.853Z,49.08
2023-03-07T00:49:05.368Z,49.25
2023-03-07T00:59:18.922Z,49.03
2023-03-07T01:02:52.560Z,48.23
2023-03-07T01:06:31.705Z,45.08
2023-03-07T01:10:21.491Z,42.15
2023-03-07T01:13:50.761Z,45.45
2023-03-07T01:17:40.859Z,38.17
2023-03-07T01:24:16.390Z,42.05
2023-03-07T01:31:19.217Z,37.83
2023-03-07T01:35:00.092Z,41.60
2023-03-07T01:38:27.936Z,36.80
2023-03-07T01:42:01.245Z,37.05
2023-03-07T01:49:44.529Z,32.98
2023-03-07T02:00:44.982Z,32.70
2023-03-07T02:04:15.303Z,31.07
2023-03-07T02:08:01.734Z,30.60
2023-03-07T02:11:28.570Z,29.15
2023-03-07T02:14:51.744Z,24.45
2023-03-07T02:18:44.595Z,25.85
2023-03-07T02:22:23.208Z,26.95
2023-03-07T02:26:10.570Z,23.77
2023-03-07T02:29:28.789Z,25.62
2023-03-07T02:33:09.827Z,25.40
2023-03-07T02:43:22.042Z,35.33
2023-03-07T02:46:55.346Z,28.12
2023-03-07T02:53:42.417Z,26.48
2023-03-07T02:57:04.317Z,25.62
2023-03-07T03:03:54.201Z,24.15
2023-03-07T03:07:15.137Z,25.62
2023-03-07T03:11:06.219Z,26.17
2023-03-07T03:15:02.604Z,24.20
2023-03-07T03:18:26.841Z,24.90
2023-03-07T03:22:03.697Z,24.98
2023-03-07T03:29:22.988Z,25.48
2023-03-07T03:33:01.222Z,25.02
2023-03-07T03:36:45.777Z,25.10
2023-03-07T03:40:18.536Z,24.82
2023-03-07T03:43:35.373Z,25.65
2023-03-07T03:47:06.736Z,23.07
2023-03-07T03:50:21.001Z,23.73
2023-03-07T04:01:15.987Z,23.45
2023-03-07T04:04:49.531Z,25.75
2023-03-07T04:08:07.775Z,25.68
2023-03-07T04:11:38.920Z,25.68
2023-03-07T04:18:52.742Z,21.85
2023-03-07T04:25:50.254Z,21.77
2023-03-07T04:29:52.978Z,19.87
2023-03-07T04:34:10.584Z,19.82
2023-03-07T04:37:49.455Z,19.37
2023-03-07T04:41:57.157Z,19.40
2023-03-07T04:45:44.252Z,19.57
2023-03-07T04:49:12.075Z,21.68
2023-03-07T04:52:45.367Z,20.75
2023-03-07T04:56:11.399Z,20.57
2023-03-07T04:59:44.831Z,22.32
2023-03-07T05:03:36.976Z,23.85
2023-03-07T05:10:55.050Z,20.50
2023-03-07T05:14:41.222Z,18.17
2023-03-07T05:18:33.515Z,18.67
2023-03-07T05:29:00.724Z,22.60
2023-03-07T05:32:32.325Z,21.57
2023-03-07T05:35:59.612Z,19.07
2023-03-07T06:18:10.994Z,19.00
2023-03-07T06:47:12.097Z,25.37
2023-03-07T07:19:56.787Z,19.37
2023-03-07T08:09:17.220Z,14.23
2023-03-07T09:06:21.044Z,12.58
2023-03-07T09:10:01.154Z,10.30
2023-03-07T09:13:52.469Z,10.78
2023-03-07T09:32:49.475Z,10.03
2023-03-07T09:36:12.410Z,9.75
2023-03-07T09:39:53.694Z,13.65
2023-03-07T09:50:34.518Z,10.00
2023-03-07T10:10:02.408Z,11.28
2023-03-07T11:10:22.405Z,11.00
2023-03-07T11:13:59.157Z,12.75
2023-03-07T11:17:34.616Z,11.78
2023-03-07T12:24:57.342Z,14.93
2023-03-07T12:32:15.966Z,13.75
2023-03-07T12:57:58.413Z,14.35
2023-03-07T13:01:28.989Z,14.73
2023-03-07T13:12:00.351Z,15.28
2023-03-07T13:15:35.022Z,15.03
2023-03-07T13:18:45.184Z,15.83
2023-03-07T13:21:58.590Z,16.25
2023-03-07T13:25:14.867Z,17.23
2023-03-07T13:29:00.079Z,16.55
2023-03-07T13:32:13.548Z,18.85
2023-03-07T13:35:23.013Z,16.97
2023-03-07T13:46:09.187Z,18.90
2023-03-07T13:50:07.958Z,17.55
2023-03-07T13:53:58.427Z,19.55
2023-03-07T13:57:31.132Z,19.82
2023-03-07T14:11:50.110Z,25.17
2023-03-07T14:15:27.892Z,22.67
2023-03-07T14:19:29.693Z,25.92
2023-03-07T14:23:12.925Z,23.90
2023-03-07T14:26:58.014Z,22.25
2023-03-07T14:30:26.900Z,22.95
2023-03-07T14:34:28.887Z,19.98
2023-03-07T14:41:38.256Z,18.67
2023-03-07T15:15:25.468Z,48.08
2023-03-07T15:18:57.342Z,103.72
2023-03-07T15:25:47.299Z,29.67
2023-03-07T15:32:59.189Z,56.18
2023-03-07T15:37:03.712Z,42.62
2023-03-07T15:40:45.735Z,32.80
2023-03-07T15:44:28.360Z,32.20
2023-03-07T15:48:29.216Z,25.95
2023-03-07T15:51:57.694Z,22.85
2023-03-07T15:55:21.985Z,22.58
2023-03-07T16:02:22.456Z,21.95
2023-03-07T16:09:44.411Z,29.10
2023-03-07T16:13:20.705Z,37.50
2023-03-07T16:16:47.118Z,42.60
2023-03-07T16:20:15.725Z,47.05
2023-03-07T16:24:07.580Z,49.55
2023-03-07T16:31:12.943Z,46.45
2023-03-07T16:34:41.988Z,44.10
2023-03-07T16:38:31.506Z,43.68
2023-03-07T16:42:10.232Z,42.35
2023-03-07T16:45:44.547Z,39.25
2023-03-07T16:49:48.831Z,37.08
2023-03-07T16:53:12.952Z,51.23
2023-03-07T16:56:49.118Z,37.75
2023-03-07T17:00:47.615Z,39.75
2023-03-07T17:04:08.954Z,38.00
2023-03-07T17:11:21.084Z,38.78
2023-03-07T17:14:43.319Z,37.23
2023-03-07T17:21:46.552Z,49.67
2023-03-07T17:25:25.503Z,47.83
2023-03-07T17:29:15.472Z,49.70
2023-03-07T17:33:01.496Z,54.05
2023-03-07T17:37:00.711Z,51.85
2023-03-07T17:40:20.485Z,62.35
2023-03-07T17:43:57.758Z,65.00
2023-03-07T17:59:14.450Z,64.45
2023-03-07T18:02:36.839Z,68.28
2023-03-07T18:06:16.574Z,69.60
2023-03-07T18:10:08.200Z,68.17
2023-03-07T18:13:42.594Z,75.47
2023-03-07T18:25:07.384Z,95.25
2023-03-07T18:32:43.650Z,74.62
2023-03-07T18:50:27.633Z,55.33
2023-03-07T18:53:57.144Z,60.15
2023-03-07T18:57:11.573Z,58.25
2023-03-07T19:00:45.547Z,52.13
2023-03-07T19:04:38.785Z,53.63
2023-03-07T19:11:53.936Z,70.50
2023-03-07T19:15:26.336Z,66.95
2023-03-07T19:32:50.187Z,63.42
2023-03-07T19:36:14.748Z,72.47
2023-03-07T19:39:51.775Z,63.98
2023-03-07T19:43:05.268Z,68.87
2023-03-07T19:46:58.845Z,68.50
2023-03-07T19:50:26.729Z,67.60
2023-03-07T19:53:56.971Z,68.75
2023-03-07T19:57:28.302Z,66.07
2023-03-07T20:01:24.965Z,64.50
2023-03-07T20:05:09.210Z,90.77
2023-03-07T20:08:52.102Z,66.30
2023-03-07T20:12:17.356Z,62.10
2023-03-07T20:19:41.063Z,84.87
2023-03-07T20:23:10.262Z,73.62
2023-03-07T20:26:37.471Z,72.67
2023-03-07T20:34:00.212Z,65.57
2023-03-07T20:41:45.170Z,61.92
2023-03-07T20:45:35.775Z,64.97
2023-03-07T20:52:58.661Z,37.88
2023-03-07T20:56:37.136Z,38.10
2023-03-07T21:00:14.602Z,39.90
2023-03-07T21:03:50.350Z,46.88
2023-03-07T21:07:11.188Z,46.30
2023-03-07T21:10:44.305Z,47.13
2023-03-07T21:21:15.929Z,45.25
2023-03-07T21:24:41.859Z,42.03
2023-03-07T21:28:01.182Z,45.65
2023-03-07T21:31:45.505Z,45.58
2023-03-07T21:35:03.306Z,46.58
2023-03-07T21:42:11.965Z,52.53
2023-03-07T21:45:32.590Z,51.53
2023-03-07T21:48:58.086Z,50.05
2023-03-07T21:52:31.891Z,49.15
2023-03-07T21:56:09.946Z,49.03
2023-03-07T21:59:58.674Z,43.68
2023-03-07T22:03:38.460Z,46.77
2023-03-07T22:07:21.552Z,47.43
2023-03-07T22:10:55.159Z,51.25
2023-03-07T22:14:14.852Z,49.03
2023-03-07T22:17:31.756Z,49.08
2023-03-07T22:21:10.386Z,47.03
2023-03-07T22:24:45.945Z,47.60
2023-03-07T22:28:18.220Z,47.83
2023-03-07T22:31:49.702Z,48.45
2023-03-07T22:35:20.740Z,48.30
2023-03-07T22:38:42.674Z,48.52
2023-03-07T22:42:02.759Z,46.25
2023-03-07T22:45:24.925Z,52.13
2023-03-07T22:48:49.872Z,52.48
2023-03-07T22:52:02.419Z,47.95
2023-03-07T22:55:43.090Z,47.73
2023-03-07T22:59:31.147Z,44.25
2023-03-07T23:02:49.295Z,43.92
2023-03-07T23:06:12.108Z,39.78
2023-03-07T23:09:34.696Z,37.50
2023-03-07T23:12:46.395Z,32.58
2023-03-07T23:16:14.638Z,33.20
2023-03-07T23:19:39.793Z,29.37
2023-03-07T23:22:55.577Z,28.42
2023-03-07T23:26:16.307Z,24.82
2023-03-07T23:29:33.578Z,22.15
2023-03-07T23:32:44.828Z,19.00
2023-03-07T23:36:01.633Z,19.75
2023-03-07T23:39:18.284Z,21.50
2023-03-07T23:42:30.521Z,22.32
2023-03-07T23:45:41.202Z,21.15
2023-03-07T23:48:50.101Z,21.23
2023-03-07T23:52:22.603Z,18.70
2023-03-07T23:55:39.018Z,17.98
2023-03-07T23:59:27.916Z,16.20
